Terminal Aerodrome Forecast
Issued by NWS

Home | Current Version | Previous Version | Text Only | Print | Product List | Glossary On
Versions: 1 2 3 4 5 6 7 8 9 10 11 12 13 14 15 16 17 18 19 20 21 22 23 24 25 26 27 28 29
000
FTUS43 KLOT 292320
TAFMDW
TAF
KMDW 292320Z 3000/3024 09009KT P6SM VCSH FEW040 SCT070 BKN150
      TEMPO 3000/3001 -SHRA BKN035
     FM300200 13003KT P6SM FEW150 SCT250
     FM301500 24005KT P6SM SCT040 BKN080
     FM301800 26007KT P6SM VCSH BKN035 PROB30 3018/3024 2SM TSRA
      SCT020 OVC030CB=

USA.gov is the U.S. government's official web portal to all federal, state and local government web resources and services.